Rossiter, Pennsylvania
Current Conditions -  °F | °C
As of 7:15 AM on Saturday 25 Oct 2014 (Local Time) from KIDI Reporting Station
Overcast Overcast  
Wind Chill: 46°   Ceiling: 4400
Heat Index: 46°   Visibility: 10mi
Dew Point: 41°   Wind: 3mph
Humidity: 81%   Direction: 250°WSW
Pressure: 29.99"   Gusts: NA
Location:  40.89°N, 78.93°W
Report Text: KIDI 251115Z AUTO 25003KT 10SM OVC044 08/05 A2999 RMK A01
Loading
Personal Weather Stations






























Interactive Weather Map
Tropical Storm Tracking
New forecast layout! Learn more

10-Day Weather Forecast

Advertisements
Track Severe Weather on mobile